Time;durP1;ratioP1;P1;durP2;ratioP2;P2;SDS_P1;SDS_P2;PMS_P1;PMS_P2;Temp;Humidity;BMP_temperature;BMP_pressure;BME280_temperature;BME280_humidity;BME280_pressure;Samples;Min_cycle;Max_cycle;Signal;HPM_P1;HPM_P2
2021/11/21 00:01:35;;;;;;;31.85;19.48;;;;;;;7.85;100.00;96340.22;4997737;28;20077;-61
2021/11/21 00:04:04;;;;;;;33.08;20.20;;;;;;;8.29;100.00;96338.19;4999562;28;20057;-60
2021/11/21 00:06:33;;;;;;;34.53;20.70;;;;;;;8.21;100.00;96342.41;4996572;28;20082;-58
2021/11/21 00:09:01;;;;;;;42.70;23.35;;;;;;;8.52;100.00;96330.09;4996717;28;20567;-56
2021/11/21 00:11:34;;;;;;;34.00;20.00;;;;;;;8.88;100.00;96326.00;4992009;28;20080;-60
2021/11/21 00:14:03;;;;;;;34.22;21.25;;;;;;;8.44;100.00;96322.91;5001284;28;20453;-61
2021/11/21 00:16:33;;;;;;;32.75;20.40;;;;;;;8.57;100.00;96317.41;4997972;28;20046;-59
2021/11/21 00:19:01;;;;;;;32.72;20.77;;;;;;;8.04;100.00;96315.81;4991558;28;20066;-61
2021/11/21 00:21:30;;;;;;;34.33;20.45;;;;;;;8.17;100.00;96318.22;4992497;28;20084;-60
2021/11/21 00:23:58;;;;;;;32.10;19.77;;;;;;;7.99;100.00;96306.69;4992941;28;20246;-60
2021/11/21 00:26:27;;;;;;;30.20;19.42;;;;;;;7.62;100.00;96307.19;4996585;28;20058;-60
2021/11/21 00:28:55;;;;;;;31.77;19.00;;;;;;;7.36;100.00;96309.38;4995461;28;20073;-62
2021/11/21 00:31:24;;;;;;;32.80;19.92;;;;;;;7.50;100.00;96305.59;4995656;28;20353;-58
2021/11/21 00:33:54;;;;;;;30.63;18.95;;;;;;;7.09;100.00;96302.03;4997905;28;20088;-58
2021/11/21 00:36:22;;;;;;;30.03;18.53;;;;;;;7.68;100.00;96290.13;4993960;28;20062;-56
2021/11/21 00:38:50;;;;;;;27.27;18.13;;;;;;;7.22;100.00;96292.19;4997299;28;20065;-55
2021/11/21 00:41:19;;;;;;;25.55;17.40;;;;;;;7.04;100.00;96291.09;4994909;28;20062;-59
2021/11/21 00:43:48;;;;;;;28.50;17.10;;;;;;;7.12;100.00;96286.03;4998866;28;20532;-54
2021/11/21 00:46:16;;;;;;;30.20;17.90;;;;;;;7.09;100.00;96275.84;4998437;28;20070;-58
2021/11/21 00:48:45;;;;;;;28.50;18.25;;;;;;;6.95;100.00;96284.84;4988927;28;20046;-59
2021/11/21 00:51:15;;;;;;;27.67;17.27;;;;;;;7.01;100.00;96273.81;5005843;28;20066;-59
2021/11/21 00:53:44;;;;;;;26.50;17.60;;;;;;;7.40;100.00;96267.97;5001162;28;20062;-57
2021/11/21 00:56:13;;;;;;;28.90;17.63;;;;;;;7.41;100.00;96259.19;4995693;28;20296;-58
2021/11/21 00:58:41;;;;;;;30.85;17.88;;;;;;;7.28;100.00;96254.94;5004765;28;20077;-59
2021/11/21 01:01:10;;;;;;;28.90;17.83;;;;;;;7.35;100.00;96252.66;4992984;28;20066;-58
2021/11/21 01:03:39;;;;;;;34.10;20.13;;;;;;;7.51;100.00;96245.16;4995906;28;20441;-58
2021/11/21 01:06:07;;;;;;;29.65;18.88;;;;;;;7.67;100.00;96243.81;4995209;28;20069;-59
2021/11/21 01:08:37;;;;;;;32.03;19.38;;;;;;;7.65;100.00;96251.84;4996254;28;20269;-54
2021/11/21 01:11:07;;;;;;;29.42;18.17;;;;;;;7.78;100.00;96241.13;4990461;28;20096;-56
2021/11/21 01:13:37;;;;;;;33.85;19.33;;;;;;;8.07;100.00;96236.78;5002883;28;20050;-56
2021/11/21 01:16:07;;;;;;;32.33;19.15;;;;;;;7.89;100.00;96237.56;4994435;28;20089;-56
2021/11/21 01:18:36;;;;;;;32.15;19.80;;;;;;;7.89;100.00;96235.75;5002250;28;20532;-55
2021/11/21 01:21:05;;;;;;;30.88;18.20;;;;;;;7.66;100.00;96231.66;4989214;28;20058;-57
2021/11/21 01:23:33;;;;;;;29.10;18.02;;;;;;;7.44;100.00;96227.44;4994090;28;20062;-57
2021/11/21 01:26:03;;;;;;;27.48;17.30;;;;;;;7.34;100.00;96227.38;4995446;28;20078;-57
2021/11/21 01:28:32;;;;;;;29.58;18.10;;;;;;;7.75;100.00;96220.38;4995517;28;20073;-57
2021/11/21 01:31:00;;;;;;;27.52;16.63;;;;;;;7.40;100.00;96218.16;4992275;28;20077;-54
2021/11/21 01:33:29;;;;;;;32.33;18.63;;;;;;;7.69;100.00;96216.47;4995284;28;20066;-60
2021/11/21 01:35:58;;;;;;;31.50;18.67;;;;;;;7.96;100.00;96209.81;4990674;28;20108;-58
2021/11/21 01:38:26;;;;;;;31.73;18.90;;;;;;;7.54;100.00;96205.53;4993302;28;20054;-60
2021/11/21 01:40:55;;;;;;;31.25;18.38;;;;;;;7.14;100.00;96208.09;5001729;28;20086;-58
2021/11/21 01:43:25;;;;;;;33.00;19.52;;;;;;;7.69;100.00;96208.59;4993843;28;20547;-60
2021/11/21 01:45:53;;;;;;;30.45;18.85;;;;;;;7.73;100.00;96202.13;4996781;28;20062;-61
2021/11/21 01:48:22;;;;;;;34.20;19.92;;;;;;;7.21;100.00;96192.66;5004201;28;20053;-58
2021/11/21 01:50:51;;;;;;;37.70;19.90;;;;;;;7.40;100.00;96189.28;4998005;28;20066;-57
2021/11/21 01:53:19;;;;;;;38.10;19.70;;;;;;;6.92;100.00;96195.09;4991003;28;20073;-60
2021/11/21 01:55:48;;;;;;;34.65;18.90;;;;;;;7.05;100.00;96190.50;4994470;28;20082;-61
2021/11/21 01:58:17;;;;;;;33.63;18.75;;;;;;;6.89;100.00;96189.19;4992799;28;20100;-59
2021/11/21 02:00:48;;;;;;;32.65;17.17;;;;;;;6.46;100.00;96191.06;4997019;28;20069;-58
2021/11/21 02:03:18;;;;;;;36.42;18.98;;;;;;;6.57;100.00;96197.09;5002182;28;20076;-59
2021/11/21 02:05:46;;;;;;;33.45;18.17;;;;;;;6.89;100.00;96186.56;4996626;28;20058;-57
2021/11/21 02:08:16;;;;;;;40.15;18.38;;;;;;;6.91;100.00;96194.28;4996551;28;20101;-58
2021/11/21 02:10:44;;;;;;;30.83;17.40;;;;;;;6.71;100.00;96195.09;4994714;28;20462;-57
2021/11/21 02:13:13;;;;;;;29.60;16.88;;;;;;;6.73;100.00;96191.41;4990270;28;20077;-60
2021/11/21 02:15:44;;;;;;;27.40;16.70;;;;;;;6.89;100.00;96181.31;4993436;28;20066;-60
2021/11/21 02:18:14;;;;;;;33.05;16.27;;;;;;;6.62;100.00;96175.75;4992598;28;20076;-55
2021/11/21 02:20:52;;;;;;;29.88;15.95;;;;;;;6.81;100.00;96172.41;4994266;28;20104;-59
2021/11/21 02:23:21;;;;;;;44.80;15.95;;;;;;;7.03;100.00;96161.81;4991841;28;20520;-57
2021/11/21 02:25:51;;;;;;;34.95;14.63;;;;;;;7.01;100.00;96161.09;4997239;28;20085;-60
2021/11/21 02:28:19;;;;;;;30.27;14.02;;;;;;;7.53;100.00;96153.16;4993806;28;20069;-58
2021/11/21 02:30:48;;;;;;;31.35;13.43;;;;;;;7.32;100.00;96155.84;4995024;28;20073;-60
2021/11/21 02:33:20;;;;;;;27.75;13.32;;;;;;;7.30;100.00;96144.69;4987811;28;20092;-58
2021/11/21 02:35:51;;;;;;;39.50;12.95;;;;;;;7.25;100.00;96144.22;4984986;28;20050;-60
2021/11/21 02:38:22;;;;;;;45.30;13.88;;;;;;;6.86;100.00;96144.88;4977282;28;20077;-58
2021/11/21 02:40:50;;;;;;;;;;;;;;;7.07;100.00;96152.72;4995666;28;20556;-58
2021/11/21 02:43:20;;;;;;;44.25;11.57;;;;;;;7.01;100.00;96144.53;4996928;28;21190;-60
2021/11/21 02:45:50;;;;;;;27.30;12.45;;;;;;;7.29;100.00;96137.75;4978045;28;20062;-58
2021/11/21 02:48:20;;;;;;;21.27;12.30;;;;;;;7.22;100.00;96123.50;4986581;28;20069;-60
2021/11/21 02:50:51;;;;;;;25.40;12.25;;;;;;;7.42;100.00;96125.25;4991754;28;20566;-56
2021/11/21 02:53:21;;;;;;;22.00;11.95;;;;;;;7.54;100.00;96118.94;4988779;28;20066;-60
2021/11/21 02:55:52;;;;;;;21.55;11.88;;;;;;;7.14;100.00;96105.81;4992628;28;20570;-59
2021/11/21 02:58:21;;;;;;;19.13;11.50;;;;;;;7.16;100.00;96103.91;4991783;28;21275;-60
2021/11/21 03:00:50;;;;;;;22.83;12.10;;;;;;;7.27;100.00;96090.69;4992193;28;20077;-56
2021/11/21 03:03:18;;;;;;;25.45;12.25;;;;;;;7.40;100.00;96079.13;4987638;28;20543;-59
2021/11/21 03:05:47;;;;;;;27.92;12.27;;;;;;;6.95;100.00;96079.50;4988905;28;20066;-58
2021/11/21 03:08:18;;;;;;;22.80;11.20;;;;;;;7.28;100.00;96083.66;4988561;28;20521;-58
2021/11/21 03:10:48;;;;;;;23.50;11.48;;;;;;;7.29;100.00;96069.56;4991746;28;20065;-55
2021/11/21 03:13:16;;;;;;;31.80;11.30;;;;;;;7.42;100.00;96066.72;4997100;28;20074;-59
2021/11/21 03:15:45;;;;;;;16.42;10.55;;;;;;;7.02;100.00;96064.91;4998568;28;20121;-54
2021/11/21 03:18:14;;;;;;;27.17;11.43;;;;;;;7.19;100.00;96061.69;4993366;28;20146;-58
2021/11/21 03:20:42;;;;;;;33.72;12.32;;;;;;;7.36;100.00;96057.56;4993028;28;20066;-60
2021/11/21 03:23:11;;;;;;;35.08;12.15;;;;;;;6.95;100.00;96063.78;4991293;28;20505;-60
2021/11/21 03:25:41;;;;;;;24.38;11.02;;;;;;;7.02;100.00;96070.16;4998088;28;20105;-57
2021/11/21 03:28:09;;;;;;;19.77;11.38;;;;;;;6.85;100.00;96067.22;4998976;28;20085;-58
2021/11/21 03:30:38;;;;;;;21.88;11.30;;;;;;;7.21;100.00;96072.88;4994398;28;20073;-61
2021/11/21 03:33:07;;;;;;;28.80;11.63;;;;;;;6.72;100.00;96077.09;4997859;28;20437;-54
2021/11/21 03:35:35;;;;;;;25.20;10.85;;;;;;;7.20;100.00;96065.16;4996890;28;20066;-61
2021/11/21 03:38:04;;;;;;;32.90;11.32;;;;;;;6.83;100.00;96063.88;4998559;28;20069;-59
2021/11/21 03:40:32;;;;;;;26.08;10.65;;;;;;;6.69;100.00;96061.63;4980522;28;20073;-58
2021/11/21 03:43:02;;;;;;;24.77;10.55;;;;;;;6.97;100.00;96057.47;4993668;28;20085;-58
2021/11/21 03:45:31;;;;;;;31.15;11.40;;;;;;;6.83;100.00;96063.06;4986507;28;20102;-56
2021/11/21 03:48:00;;;;;;;27.48;11.02;;;;;;;6.47;100.00;96060.00;4977581;28;20081;-60
2021/11/21 03:50:28;;;;;;;21.60;11.07;;;;;;;6.77;100.00;96058.34;4977898;28;20062;-58
2021/11/21 03:52:57;;;;;;;18.70;10.40;;;;;;;6.82;100.00;96050.94;4989206;28;20050;-56
2021/11/21 03:55:26;;;;;;;33.15;10.32;;;;;;;6.86;100.00;96045.28;4994023;28;20113;-57
2021/11/21 03:57:54;;;;;;;27.48;10.00;;;;;;;6.40;100.00;96049.22;4997002;28;20101;-57
2021/11/21 04:00:25;;;;;;;22.70;10.45;;;;;;;6.81;100.00;96049.25;4995095;28;20715;-60
2021/11/21 04:02:55;;;;;;;25.88;10.52;;;;;;;6.93;100.00;96045.59;4993362;28;20070;-57
2021/11/21 04:05:24;;;;;;;33.42;9.98;;;;;;;7.04;100.00;96044.66;4992409;28;20093;-58
2021/11/21 04:07:53;;;;;;;25.52;9.98;;;;;;;6.94;100.00;96038.56;4998803;28;20088;-58
2021/11/21 04:10:21;;;;;;;28.63;10.18;;;;;;;6.71;100.00;96041.38;4993998;28;20544;-61
2021/11/21 04:12:50;;;;;;;30.95;9.70;;;;;;;6.76;100.00;96040.97;4996683;28;20069;-61
2021/11/21 04:15:18;;;;;;;21.70;9.68;;;;;;;6.86;100.00;96045.28;4995742;28;20073;-57
2021/11/21 04:17:48;;;;;;;25.77;9.43;;;;;;;6.56;100.00;96043.50;4992777;28;20065;-60
2021/11/21 04:20:16;;;;;;;18.73;8.63;;;;;;;6.86;100.00;96040.03;4996875;28;20089;-56
2021/11/21 04:22:45;;;;;;;23.23;9.27;;;;;;;6.53;100.00;96033.25;4997692;28;20074;-55
2021/11/21 04:25:14;;;;;;;30.20;10.15;;;;;;;6.84;100.00;96033.25;4977438;28;20093;-58
2021/11/21 04:27:42;;;;;;;33.35;9.25;;;;;;;6.85;100.00;96022.66;4990958;28;20089;-61
2021/11/21 04:30:13;;;;;;;18.60;9.15;;;;;;;6.40;100.00;96019.53;4995425;28;20092;-56
2021/11/21 04:32:42;;;;;;;25.15;9.40;;;;;;;6.45;100.00;96016.56;5001067;28;20085;-59
2021/11/21 04:35:14;;;;;;;24.60;9.15;;;;;;;6.40;100.00;96011.69;4994933;28;20092;-60
2021/11/21 04:37:43;;;;;;;25.05;9.32;;;;;;;6.41;100.00;96008.97;5003050;28;20077;-60
2021/11/21 04:40:12;;;;;;;21.48;9.50;;;;;;;6.73;100.00;96005.38;5000600;28;20046;-57
2021/11/21 04:42:41;;;;;;;21.45;10.05;;;;;;;6.71;100.00;96012.56;4996730;28;20054;-60
2021/11/21 04:45:11;;;;;;;21.67;10.18;;;;;;;6.39;100.00;96008.25;4995340;28;20065;-57
2021/11/21 04:47:40;;;;;;;32.72;10.43;;;;;;;6.21;100.00;96011.59;4994578;28;20070;-60
2021/11/21 04:50:10;;;;;;;27.50;10.95;;;;;;;6.15;100.00;96005.06;4994010;28;20083;-58
2021/11/21 04:52:40;;;;;;;19.70;9.95;;;;;;;5.85;100.00;96011.03;4996914;28;20740;-58
2021/11/21 04:55:10;;;;;;;25.10;11.25;;;;;;;5.67;100.00;96006.34;4996968;28;20567;-55
2021/11/21 04:57:41;;;;;;;16.20;10.32;;;;;;;5.03;100.00;96002.91;4997599;28;20080;-57
2021/11/21 05:00:10;;;;;;;;;;;;;;;5.06;100.00;96003.50;4992909;28;20785;-57
2021/11/21 05:02:40;;;;;;;24.33;9.48;;;;;;;5.12;100.00;96005.59;4992762;28;20427;-57
2021/11/21 05:05:10;;;;;;;21.42;8.50;;;;;;;4.87;100.00;96008.50;4994941;28;20081;-58
2021/11/21 05:07:40;;;;;;;16.08;8.32;;;;;;;5.02;100.00;96009.88;4998358;28;20077;-59
2021/11/21 05:10:10;;;;;;;35.22;8.55;;;;;;;4.66;100.00;96000.56;4992285;28;20063;-55
2021/11/21 05:12:39;;;;;;;31.80;8.73;;;;;;;4.80;100.00;96002.09;4977369;28;20089;-59
2021/11/21 05:15:09;;;;;;;19.92;8.85;;;;;;;5.43;100.00;96000.50;4984386;28;20570;-58
2021/11/21 05:17:38;;;;;;;20.20;8.77;;;;;;;5.47;100.00;95997.53;4997805;28;20081;-54
2021/11/21 05:20:07;;;;;;;23.75;8.98;;;;;;;4.94;100.00;96002.66;4979353;28;20050;-57
2021/11/21 05:22:36;;;;;;;24.25;8.60;;;;;;;4.93;100.00;96006.22;4995800;28;20058;-61
2021/11/21 05:25:06;;;;;;;18.92;8.50;;;;;;;5.13;100.00;95999.44;4992422;28;20100;-55
2021/11/21 05:27:35;;;;;;;15.50;9.18;;;;;;;5.29;100.00;96000.81;4994147;28;20477;-59
2021/11/21 05:30:04;;;;;;;20.98;9.68;;;;;;;5.34;100.00;96003.88;4998357;28;20093;-56
2021/11/21 05:32:33;;;;;;;16.13;9.35;;;;;;;5.56;100.00;96000.34;4995844;28;20070;-59
2021/11/21 05:35:01;;;;;;;16.58;9.13;;;;;;;5.08;100.00;95993.72;4991094;28;20301;-57
2021/11/21 05:37:30;;;;;;;21.17;8.82;;;;;;;5.08;100.00;95987.66;4994892;28;20078;-61
2021/11/21 05:39:58;;;;;;;15.80;8.73;;;;;;;5.20;100.00;95982.31;4993218;28;20080;-59
2021/11/21 05:42:29;;;;;;;15.55;7.70;;;;;;;4.91;100.00;95982.00;4991576;28;20077;-56
2021/11/21 05:44:57;;;;;;;14.15;8.27;;;;;;;5.06;100.00;95981.72;4990503;28;20054;-57
2021/11/21 05:47:26;;;;;;;14.93;8.98;;;;;;;4.99;100.00;95973.56;4995899;28;20073;-55
2021/11/21 05:49:54;;;;;;;15.98;8.65;;;;;;;4.93;100.00;95977.50;4997748;28;20661;-58
2021/11/21 05:52:22;;;;;;;12.95;8.50;;;;;;;4.70;100.00;95974.06;4992994;28;20336;-60
2021/11/21 05:54:51;;;;;;;17.73;8.38;;;;;;;4.98;100.00;95974.50;4981016;28;20081;-53
2021/11/21 05:57:20;;;;;;;10.52;8.45;;;;;;;4.97;100.00;95972.84;4986606;28;20066;-57
2021/11/21 05:59:50;;;;;;;16.55;8.77;;;;;;;4.92;100.00;95970.63;4988229;28;20470;-54
2021/11/21 06:02:18;;;;;;;16.77;9.13;;;;;;;5.09;100.00;95966.63;4975176;28;20085;-54
2021/11/21 06:04:47;;;;;;;11.23;8.10;;;;;;;5.38;100.00;95963.47;4973679;28;20513;-59
2021/11/21 06:07:15;;;;;;;10.82;8.30;;;;;;;5.13;100.00;95962.00;4984579;28;20092;-59
2021/11/21 06:09:44;;;;;;;15.73;8.75;;;;;;;4.90;100.00;95956.00;4978831;28;20478;-57
2021/11/21 06:12:12;;;;;;;15.23;8.32;;;;;;;4.84;100.00;95957.31;4987752;28;20074;-58
2021/11/21 06:14:40;;;;;;;16.67;8.85;;;;;;;4.84;100.00;95954.69;4995747;28;20065;-53
2021/11/21 06:17:12;;;;;;;19.48;8.75;;;;;;;4.97;100.00;95946.72;4997093;28;20518;-58
2021/11/21 06:19:41;;;;;;;11.25;9.07;;;;;;;5.14;100.00;95946.19;4992478;28;20100;-58
2021/11/21 06:22:09;;;;;;;12.38;8.55;;;;;;;4.48;100.00;95948.81;4990448;28;20543;-56
2021/11/21 06:24:37;;;;;;;12.98;8.85;;;;;;;4.37;100.00;95956.66;4984144;28;20626;-60
2021/11/21 06:27:07;;;;;;;12.07;8.40;;;;;;;4.72;100.00;95955.69;4989058;28;20679;-58
2021/11/21 06:29:35;;;;;;;11.43;8.48;;;;;;;4.99;100.00;95955.28;4997107;28;20473;-59
2021/11/21 06:32:04;;;;;;;11.60;8.40;;;;;;;5.39;100.00;95945.03;4990909;28;20081;-58
2021/11/21 06:34:35;;;;;;;13.98;8.88;;;;;;;5.06;100.00;95947.75;4990439;28;20524;-58
2021/11/21 06:37:05;;;;;;;11.75;8.30;;;;;;;5.26;100.00;95941.75;4993847;28;20058;-54
2021/11/21 06:39:35;;;;;;;13.68;9.23;;;;;;;5.24;100.00;95938.44;4985403;28;20536;-58
2021/11/21 06:42:05;;;;;;;11.70;8.88;;;;;;;5.30;100.00;95932.72;4971790;28;20093;-58
2021/11/21 06:44:33;;;;;;;10.50;8.75;;;;;;;4.81;100.00;95926.22;4974526;28;20069;-58
2021/11/21 06:47:02;;;;;;;10.02;8.50;;;;;;;4.78;100.00;95931.69;4969816;28;20070;-60
2021/11/21 06:49:30;;;;;;;11.75;8.13;;;;;;;4.81;100.00;95926.22;4994417;28;20085;-58
2021/11/21 06:52:00;;;;;;;9.85;7.65;;;;;;;4.73;100.00;95931.22;4995792;28;20080;-56
2021/11/21 06:54:29;;;;;;;11.38;7.53;;;;;;;4.95;100.00;95936.38;4989354;28;20500;-57
2021/11/21 06:56:57;;;;;;;17.23;7.75;;;;;;;4.90;100.00;95937.72;4988973;28;20077;-58
2021/11/21 06:59:26;;;;;;;10.25;7.85;;;;;;;4.99;100.00;95942.22;4995282;28;20062;-57
2021/11/21 07:01:54;;;;;;;15.02;7.93;;;;;;;4.77;100.00;95943.09;4991652;28;20082;-60
2021/11/21 07:04:23;;;;;;;10.73;8.32;;;;;;;4.38;100.00;95942.66;4993893;28;21352;-61
2021/11/21 07:06:51;;;;;;;9.70;7.75;;;;;;;4.32;100.00;95940.53;4990646;28;20065;-59
2021/11/21 07:09:21;;;;;;;17.95;7.95;;;;;;;4.95;100.00;95946.81;4988385;28;20074;-57
2021/11/21 07:11:49;;;;;;;13.03;7.50;;;;;;;4.73;100.00;95944.28;4991637;28;20080;-57
2021/11/21 07:14:18;;;;;;;12.95;7.78;;;;;;;4.33;100.00;95942.16;4990201;28;20528;-57
2021/11/21 07:16:48;;;;;;;14.15;8.15;;;;;;;4.47;100.00;95943.72;4997970;28;20478;-58
2021/11/21 07:19:17;;;;;;;;;;;;;;;4.46;100.00;95949.88;4992640;28;20061;-60
2021/11/21 07:21:46;;;;;;;10.18;7.93;;;;;;;4.47;100.00;95946.31;4989058;28;20026;-59
2021/11/21 07:24:14;;;;;;;18.08;7.85;;;;;;;4.56;100.00;95945.59;4997052;28;20093;-61
2021/11/21 07:26:44;;;;;;;13.57;7.60;;;;;;;4.46;100.00;95952.50;4997848;28;20066;-60
2021/11/21 07:29:12;;;;;;;18.13;9.00;;;;;;;5.03;100.00;95953.25;4992058;28;20460;-58
2021/11/21 07:31:41;;;;;;;14.82;8.43;;;;;;;4.62;100.00;95949.53;4994969;28;20070;-62
2021/11/21 07:34:10;;;;;;;13.75;7.50;;;;;;;4.65;100.00;95946.69;4987612;28;20454;-54
2021/11/21 07:36:38;;;;;;;16.90;8.10;;;;;;;4.46;100.00;95948.09;4996999;28;20072;-60
2021/11/21 07:39:07;;;;;;;14.55;8.35;;;;;;;4.78;100.00;95947.34;4997748;28;20061;-62
2021/11/21 07:41:35;;;;;;;13.15;7.70;;;;;;;4.47;100.00;95943.72;4993225;28;20574;-61
2021/11/21 07:44:07;;;;;;;13.90;8.30;;;;;;;4.35;100.00;95947.28;4996408;28;20074;-61
2021/11/21 07:46:35;;;;;;;11.77;8.30;;;;;;;5.22;100.00;95942.97;5000353;28;20392;-59
2021/11/21 07:49:04;;;;;;;13.13;8.32;;;;;;;4.62;100.00;95939.91;4993364;28;20460;-61
2021/11/21 07:51:32;;;;;;;16.83;7.53;;;;;;;4.26;100.00;95938.38;4993499;28;20057;-59
2021/11/21 07:54:01;;;;;;;16.10;8.40;;;;;;;4.69;100.00;95933.25;4999903;28;20078;-64
2021/11/21 07:56:30;;;;;;;12.32;8.50;;;;;;;4.72;100.00;95929.56;4997171;28;20548;-61
2021/11/21 07:58:58;;;;;;;20.38;8.52;;;;;;;4.93;100.00;95929.63;4996052;28;20497;-59
2021/11/21 08:01:28;;;;;;;10.85;8.48;;;;;;;4.71;100.00;95928.75;5009656;28;20058;-56
2021/11/21 08:03:56;;;;;;;14.07;8.80;;;;;;;4.64;100.00;95922.31;5004214;28;20070;-61
2021/11/21 08:06:25;;;;;;;17.70;8.73;;;;;;;5.22;100.00;95919.44;5004310;28;20057;-58
2021/11/21 08:08:53;;;;;;;12.07;8.93;;;;;;;4.95;100.00;95931.16;5000668;28;20038;-61
2021/11/21 08:11:22;;;;;;;10.48;8.63;;;;;;;4.82;100.00;95924.41;4998232;28;20132;-63
2021/11/21 08:13:50;;;;;;;10.82;8.55;;;;;;;4.96;100.00;95930.22;4978055;28;20093;-61
2021/11/21 08:16:19;;;;;;;9.50;7.82;;;;;;;4.57;100.00;95931.59;4978128;28;20074;-58
2021/11/21 08:18:49;;;;;;;11.27;8.70;;;;;;;4.58;100.00;95925.44;4999075;28;20045;-63
2021/11/21 08:21:17;;;;;;;10.30;7.93;;;;;;;4.88;100.00;95929.16;5010363;28;20046;-61
2021/11/21 08:23:46;;;;;;;10.93;8.60;;;;;;;5.23;100.00;95929.78;5018296;28;20038;-61
2021/11/21 08:26:14;;;;;;;10.82;8.13;;;;;;;4.97;100.00;95937.09;5006092;28;20062;-61
2021/11/21 08:28:43;;;;;;;10.48;7.82;;;;;;;4.55;100.00;95927.47;5011707;28;20035;-63
2021/11/21 08:31:14;;;;;;;11.20;8.98;;;;;;;5.03;100.00;95916.66;4996165;28;20054;-61
2021/11/21 08:33:43;;;;;;;10.40;8.25;;;;;;;5.34;100.00;95913.22;4996412;28;20057;-61
2021/11/21 08:36:13;;;;;;;11.32;8.57;;;;;;;5.13;100.00;95905.34;5004754;28;20061;-63
2021/11/21 08:38:41;;;;;;;9.55;8.20;;;;;;;5.14;100.00;95904.38;5004901;28;20050;-59
2021/11/21 08:41:10;;;;;;;11.20;8.63;;;;;;;5.04;100.00;95908.69;5006119;28;20092;-62
2021/11/21 08:43:38;;;;;;;10.90;8.60;;;;;;;5.35;100.00;95896.56;5000680;28;20429;-61
2021/11/21 08:46:07;;;;;;;10.38;8.60;;;;;;;5.44;100.00;95898.44;4996332;28;20184;-59
2021/11/21 08:48:35;;;;;;;11.52;8.73;;;;;;;5.04;100.00;95908.69;4993795;28;20046;-56
2021/11/21 08:51:04;;;;;;;10.23;8.30;;;;;;;5.36;100.00;95897.38;4994697;28;20543;-61
2021/11/21 08:53:34;;;;;;;12.43;9.02;;;;;;;5.76;100.00;95894.09;4998838;28;20054;-59
2021/11/21 08:56:02;;;;;;;10.67;8.23;;;;;;;5.65;100.00;95898.44;5003625;28;20069;-63
2021/11/21 08:58:36;;;;;;;10.60;8.40;;;;;;;5.29;100.00;95896.22;5007569;28;20506;-61
2021/11/21 09:01:05;;;;;;;11.05;8.13;;;;;;;5.30;100.00;95896.13;4997122;28;20056;-63
2021/11/21 09:03:33;;;;;;;11.38;8.23;;;;;;;5.55;100.00;95897.53;4999021;28;20041;-58
2021/11/21 09:06:02;;;;;;;10.98;8.95;;;;;;;5.85;100.00;95899.38;5002560;28;20055;-61
2021/11/21 09:08:31;;;;;;;10.10;7.82;;;;;;;5.53;100.00;95896.81;5006832;28;20429;-63
2021/11/21 09:11:00;;;;;;;10.95;7.90;;;;;;;5.29;100.00;95898.84;4995719;28;20051;-64
2021/11/21 09:13:30;;;;;;;10.98;8.43;;;;;;;5.58;100.00;95892.06;4997305;28;20061;-57
2021/11/21 09:15:59;;;;;;;12.20;7.97;;;;;;;5.58;100.00;95902.50;4993985;28;20047;-62
2021/11/21 09:18:28;;;;;;;9.27;6.88;;;;;;;5.73;100.00;95897.78;5006667;28;20049;-61
2021/11/21 09:20:58;;;;;;;10.77;8.27;;;;;;;5.59;100.00;95904.16;5006542;28;20049;-63
2021/11/21 09:23:27;;;;;;;12.30;8.55;;;;;;;5.92;100.00;95900.56;4996024;28;20054;-61
2021/11/21 09:25:55;;;;;;;11.15;8.57;;;;;;;5.96;100.00;95903.72;5002568;28;20389;-62
2021/11/21 09:28:26;;;;;;;10.55;8.32;;;;;;;5.93;100.00;95904.00;5003882;28;20547;-58
2021/11/21 09:30:55;;;;;;;9.40;7.57;;;;;;;5.83;100.00;95900.47;4986559;28;20078;-59
2021/11/21 09:33:25;;;;;;;9.70;8.13;;;;;;;5.93;100.00;95901.38;5002161;28;20074;-61
2021/11/21 09:35:53;;;;;;;7.40;5.50;;;;;;;5.72;100.00;95898.75;5005237;28;20038;-60
2021/11/21 09:38:24;;;;;;;10.27;7.85;;;;;;;5.74;100.00;95907.28;4998343;28;20486;-58
2021/11/21 09:40:52;;;;;;;;;;;;;;;6.07;100.00;95905.44;5008347;28;20058;-58
2021/11/21 09:43:21;;;;;;;10.38;8.45;;;;;;;6.32;100.00;95888.44;4998704;28;19929;-55
2021/11/21 09:45:51;;;;;;;11.48;8.32;;;;;;;6.47;100.00;95894.13;5000876;28;20081;-60
2021/11/21 09:48:19;;;;;;;10.63;7.97;;;;;;;6.58;100.00;95883.56;4998808;28;20042;-61
2021/11/21 09:50:48;;;;;;;9.93;7.68;;;;;;;6.41;100.00;95879.81;5003470;28;20070;-59
2021/11/21 09:53:16;;;;;;;9.98;8.18;;;;;;;6.76;100.00;95881.94;5003577;28;20171;-61
2021/11/21 09:55:45;;;;;;;11.18;8.45;;;;;;;6.85;100.00;95882.94;5000485;28;20159;-59
2021/11/21 09:58:13;;;;;;;11.32;8.68;;;;;;;6.69;100.00;95882.63;4997477;28;20073;-61
2021/11/21 10:00:41;;;;;;;11.77;9.00;;;;;;;7.04;100.00;95879.50;4998381;28;20038;-62
2021/11/21 10:03:13;;;;;;;11.55;8.85;;;;;;;6.80;100.00;95882.50;4998292;28;20050;-62
2021/11/21 10:05:44;;;;;;;12.55;9.13;;;;;;;6.63;100.00;95868.28;5005523;28;20038;-56
2021/11/21 10:08:14;;;;;;;11.23;8.77;;;;;;;6.80;100.00;95867.59;4998483;28;20066;-61
2021/11/21 10:10:44;;;;;;;11.73;9.32;;;;;;;7.02;100.00;95871.78;4999429;28;20142;-60
2021/11/21 10:13:31;;;;;;;15.13;9.50;;;;;;;6.67;100.00;95867.03;5000161;28;20099;-63
2021/11/21 10:16:17;;;;;;;14.48;8.95;;;;;;;7.16;100.00;95853.97;5006069;28;20066;-62
2021/11/21 10:18:48;;;;;;;13.23;9.73;;;;;;;7.58;100.00;95859.75;5004082;28;20065;-56
2021/11/21 10:21:17;;;;;;;;;;;;;;;7.46;100.00;95853.81;5003235;28;20046;-60
2021/11/21 10:23:46;;;;;;;12.95;9.65;;;;;;;7.91;100.00;95862.81;5003155;28;20403;-62
2021/11/21 10:26:23;;;;;;;14.15;9.63;;;;;;;7.66;100.00;95851.16;5001588;28;20452;-61
2021/11/21 10:28:52;;;;;;;15.65;10.25;;;;;;;7.61;100.00;95849.78;4997228;28;20050;-55
2021/11/21 10:31:22;;;;;;;13.95;9.68;;;;;;;7.33;100.00;95846.25;5001740;28;20068;-60
2021/11/21 10:33:55;;;;;;;13.38;9.45;;;;;;;7.24;100.00;95846.25;4999377;28;20042;-62
2021/11/21 10:36:26;;;;;;;15.27;10.18;;;;;;;7.07;100.00;95843.34;4996225;28;20042;-62
2021/11/21 10:38:56;;;;;;;14.18;10.07;;;;;;;7.21;100.00;95839.47;4996069;28;20425;-62
2021/11/21 10:41:26;;;;;;;14.80;10.25;;;;;;;7.18;100.00;95839.75;4993524;28;20472;-62
2021/11/21 10:43:58;;;;;;;16.27;10.43;;;;;;;7.43;100.00;95837.53;4999741;28;20076;-64
2021/11/21 10:46:32;;;;;;;16.23;11.05;;;;;;;7.49;100.00;95836.97;4994355;28;20213;-61
2021/11/21 10:49:15;;;;;;;15.98;10.77;;;;;;;7.03;100.00;95825.44;4995528;28;20564;-63
2021/11/21 10:51:45;;;;;;;17.83;12.18;;;;;;;7.47;100.00;95828.44;4995159;28;20073;-60
2021/11/21 10:54:21;;;;;;;16.97;11.67;;;;;;;6.99;100.00;95824.06;5003593;28;20046;-61
2021/11/21 10:56:52;;;;;;;16.73;11.90;;;;;;;6.90;100.00;95831.75;4997462;28;20043;-61
2021/11/21 10:59:41;;;;;;;17.23;11.30;;;;;;;7.23;100.00;95827.06;4994335;28;20062;-62
2021/11/21 11:02:12;;;;;;;17.80;12.35;;;;;;;7.54;100.00;95817.22;4998843;28;20057;-63
2021/11/21 11:05:00;;;;;;;16.88;12.02;;;;;;;7.73;100.00;95818.94;5004827;28;20072;-60
2021/11/21 11:07:29;;;;;;;18.23;11.93;;;;;;;7.69;100.00;95822.00;5000350;28;21319;-61
2021/11/21 11:09:58;;;;;;;17.25;11.55;;;;;;;7.69;100.00;95822.84;5004420;28;20046;-62
2021/11/21 11:12:27;;;;;;;20.13;12.38;;;;;;;7.64;100.00;95813.72;4994112;28;20676;-60
2021/11/21 11:14:56;;;;;;;19.83;12.25;;;;;;;7.63;100.00;95806.84;4989691;28;20077;-62
2021/11/21 11:17:26;;;;;;;17.50;12.07;;;;;;;7.42;100.00;95807.84;4979534;28;20066;-62
2021/11/21 11:19:58;;;;;;;19.45;12.48;;;;;;;7.44;100.00;95805.91;4995607;28;20070;-64
2021/11/21 11:22:27;;;;;;;20.88;13.20;;;;;;;7.52;100.00;95799.97;4975571;28;21303;-61
2021/11/21 11:24:56;;;;;;;18.13;11.80;;;;;;;7.43;100.00;95806.88;4983515;28;20081;-60
2021/11/21 11:27:30;;;;;;;22.38;14.35;;;;;;;7.63;100.00;95807.66;4989257;28;20045;-61
2021/11/21 11:29:58;;;;;;;17.60;12.07;;;;;;;7.52;100.00;95813.06;4993770;28;20504;-61
2021/11/21 11:32:31;;;;;;;18.15;11.20;;;;;;;7.56;100.00;95807.38;4994164;28;20065;-59
2021/11/21 11:35:01;;;;;;;17.90;12.13;;;;;;;7.44;100.00;95802.47;4997669;28;20089;-63